createdAt,value
2022-11-09T00:00:28.384Z,96.92
2022-11-09T00:01:37.563Z,96.92
2022-11-09T00:02:46.745Z,97.16
2022-11-09T00:03:54.929Z,97.41
2022-11-09T00:05:03.120Z,98.87
2022-11-09T00:06:12.291Z,97.9
2022-11-09T00:07:21.459Z,98.63
2022-11-09T00:08:30.641Z,97.41
2022-11-09T00:09:39.803Z,96.92
2022-11-09T00:10:48.982Z,98.14
2022-11-09T00:11:58.143Z,96.43
2022-11-09T00:13:07.322Z,98.87
2022-11-09T00:14:16.492Z,97.41
2022-11-09T00:15:25.672Z,97.9
2022-11-09T00:16:33.868Z,99.12
2022-11-09T00:17:43.030Z,99.12
2022-11-09T00:18:51.225Z,98.14
2022-11-09T00:20:00.419Z,99.12
2022-11-09T00:21:09.562Z,98.63
2022-11-09T00:22:18.741Z,99.12
2022-11-09T00:23:27.913Z,106.2
2022-11-09T00:24:37.081Z,98.87
2022-11-09T00:25:46.264Z,96.67
2022-11-09T00:26:55.439Z,97.9
2022-11-09T00:28:04.605Z,98.63
2022-11-09T00:29:13.774Z,96.92
2022-11-09T00:30:22.956Z,96.67
2022-11-09T00:31:32.121Z,97.9
2022-11-09T00:32:41.308Z,96.43
2022-11-09T00:33:49.472Z,97.16
2022-11-09T00:34:58.654Z,99.12
2022-11-09T00:36:07.824Z,102.05
2022-11-09T00:37:16.989Z,98.63
2022-11-09T00:38:26.173Z,97.9
2022-11-09T00:39:35.339Z,98.87
2022-11-09T00:40:43.544Z,96.19
2022-11-09T00:41:52.704Z,96.67
2022-11-09T00:43:00.900Z,98.63
2022-11-09T00:44:09.083Z,94.97
2022-11-09T00:45:18.252Z,97.41
2022-11-09T00:46:27.436Z,101.31
2022-11-09T00:47:36.598Z,97.16
2022-11-09T00:48:45.769Z,106.93
2022-11-09T00:49:54.944Z,97.65
2022-11-09T00:51:04.117Z,102.05
2022-11-09T00:52:13.287Z,101.31
2022-11-09T00:53:22.465Z,95.45
2022-11-09T00:54:31.637Z,97.9
2022-11-09T00:55:40.800Z,95.7
2022-11-09T00:56:49.993Z,91.55
2022-11-09T00:57:59.159Z,90.33
2022-11-09T00:59:07.352Z,91.06
2022-11-09T01:00:16.504Z,92.52
2022-11-09T01:01:25.682Z,93.26
2022-11-09T01:02:34.856Z,92.77
2022-11-09T01:03:44.023Z,90.08
2022-11-09T01:04:53.189Z,89.84
2022-11-09T01:06:02.371Z,90.57
2022-11-09T01:07:10.567Z,89.35
2022-11-09T01:08:18.748Z,88.13
2022-11-09T01:09:27.922Z,93.01
2022-11-09T01:10:37.101Z,88.37
2022-11-09T01:11:45.288Z,86.18
2022-11-09T01:12:53.493Z,88.62
2022-11-09T01:14:02.646Z,86.66
2022-11-09T01:15:11.830Z,84.71
2022-11-09T01:16:21.003Z,84.71
2022-11-09T01:17:30.159Z,102.78
2022-11-09T01:18:39.364Z,85.44
2022-11-09T01:19:48.512Z,83.74
2022-11-09T01:20:57.693Z,106.93
2022-11-09T01:22:06.855Z,84.47
2022-11-09T01:23:16.026Z,91.3
2022-11-09T01:24:25.199Z,83.25
2022-11-09T01:25:34.377Z,83.98
2022-11-09T01:26:43.547Z,83.98
2022-11-09T01:27:51.719Z,89.11
2022-11-09T01:29:00.902Z,84.47
2022-11-09T01:30:10.073Z,83.49
2022-11-09T01:31:19.253Z,83.98
2022-11-09T01:32:28.428Z,86.42
2022-11-09T01:33:37.593Z,84.47
2022-11-09T01:34:46.775Z,85.44
2022-11-09T01:35:54.950Z,84.47
2022-11-09T01:37:03.148Z,83.25
2022-11-09T01:38:11.348Z,86.66
2022-11-09T01:39:19.533Z,83.74
2022-11-09T01:40:28.705Z,84.47
2022-11-09T01:41:37.879Z,87.15
2022-11-09T01:42:47.059Z,83.49
2022-11-09T01:43:56.239Z,86.42
2022-11-09T01:45:05.386Z,92.77
2022-11-09T01:46:14.573Z,85.93
2022-11-09T01:47:23.741Z,85.93
2022-11-09T01:48:32.906Z,89.11
2022-11-09T01:49:42.082Z,86.18
2022-11-09T01:50:51.245Z,94.97
2022-11-09T01:52:00.424Z,88.13
2022-11-09T01:53:09.606Z,88.86
2022-11-09T01:54:17.787Z,87.64
2022-11-09T01:55:26.951Z,92.28
2022-11-09T01:56:36.124Z,87.64
2022-11-09T01:57:45.299Z,93.01
2022-11-09T01:58:54.471Z,88.37
2022-11-09T02:00:03.642Z,91.55
2022-11-09T02:01:12.818Z,105.46
2022-11-09T02:02:21.018Z,89.84
2022-11-09T02:03:29.198Z,91.79
2022-11-09T02:04:38.372Z,91.06
2022-11-09T02:05:46.581Z,90.08
2022-11-09T02:06:54.744Z,89.84
2022-11-09T02:08:04.080Z,90.33
2022-11-09T02:09:13.102Z,93.99
2022-11-09T02:10:22.264Z,89.84
2022-11-09T02:11:31.443Z,90.57
2022-11-09T02:12:40.624Z,91.3
2022-11-09T02:13:49.804Z,90.33
2022-11-09T02:14:58.948Z,91.55
2022-11-09T02:16:08.133Z,91.06
2022-11-09T02:17:17.290Z,92.28
2022-11-09T02:18:26.465Z,95.94
2022-11-09T02:19:35.646Z,90.08
2022-11-09T02:20:44.820Z,92.28
2022-11-09T02:21:53.013Z,90.08
2022-11-09T02:23:02.192Z,92.28
2022-11-09T02:24:11.347Z,91.55
2022-11-09T02:25:20.535Z,92.77
2022-11-09T02:26:29.706Z,93.26
2022-11-09T02:27:38.876Z,94.48
2022-11-09T02:29:57.208Z,92.04
2022-11-09T02:31:06.387Z,92.52
2022-11-09T02:32:15.547Z,90.57
2022-11-09T02:33:24.723Z,90.57
2022-11-09T02:34:33.903Z,95.7
2022-11-09T02:35:43.069Z,95.21
2022-11-09T02:36:51.281Z,89.59
2022-11-09T02:37:59.446Z,90.33
2022-11-09T02:39:07.647Z,91.06
2022-11-09T02:40:15.839Z,93.99
2022-11-09T02:41:25.008Z,90.08
2022-11-09T02:42:34.181Z,89.35
2022-11-09T02:43:43.352Z,88.37
2022-11-09T02:44:51.525Z,94.97
2022-11-09T02:46:00.703Z,86.91
2022-11-09T02:47:09.890Z,89.84
2022-11-09T02:48:19.058Z,90.82
2022-11-09T02:49:28.236Z,89.11
2022-11-09T02:50:37.428Z,89.84
2022-11-09T02:51:46.581Z,86.42
2022-11-09T02:52:55.744Z,87.4
2022-11-09T02:55:14.105Z,87.64
2022-11-09T02:56:23.283Z,89.35
2022-11-09T02:57:32.436Z,86.66
2022-11-09T02:58:41.602Z,88.62
2022-11-09T02:59:49.792Z,85.2
2022-11-09T03:00:58.972Z,84.71
2022-11-09T03:02:08.134Z,85.44
2022-11-09T03:03:17.327Z,85.69
2022-11-09T03:04:25.510Z,97.41
2022-11-09T03:05:33.713Z,86.18
2022-11-09T03:06:41.896Z,84.71
2022-11-09T03:07:50.082Z,84.71
2022-11-09T03:08:59.428Z,90.33
2022-11-09T03:10:08.418Z,83.49
2022-11-09T03:11:17.592Z,88.62
2022-11-09T03:12:26.775Z,88.86
2022-11-09T03:13:35.938Z,83.98
2022-11-09T03:14:45.113Z,96.92
2022-11-09T03:15:54.289Z,84.47
2022-11-09T03:17:03.455Z,81.78
2022-11-09T03:18:12.633Z,81.29
2022-11-09T03:19:21.799Z,87.4
2022-11-09T03:20:30.971Z,81.05
2022-11-09T03:21:40.143Z,81.78
2022-11-09T03:22:48.330Z,80.32
2022-11-09T03:23:57.509Z,83.98
2022-11-09T03:25:06.685Z,86.66
2022-11-09T03:26:15.850Z,84.22
2022-11-09T03:27:25.021Z,92.52
2022-11-09T03:28:34.207Z,92.04
2022-11-09T03:29:43.361Z,82.03
2022-11-09T03:30:51.566Z,88.62
2022-11-09T03:31:59.750Z,83.25
2022-11-09T03:33:08.912Z,80.81
2022-11-09T03:34:18.088Z,82.03
2022-11-09T03:35:27.271Z,93.5
2022-11-09T03:36:36.429Z,87.4
2022-11-09T03:37:45.608Z,95.45
2022-11-09T03:38:54.780Z,89.59
2022-11-09T03:40:03.949Z,81.29
2022-11-09T03:41:13.136Z,85.2
2022-11-09T03:42:21.335Z,84.22
2022-11-09T03:43:29.511Z,83.74
2022-11-09T03:44:38.703Z,81.78
2022-11-09T03:45:47.856Z,83.49
2022-11-09T03:46:57.025Z,82.03
2022-11-09T03:48:06.199Z,84.22
2022-11-09T03:49:15.374Z,80.07
2022-11-09T03:50:24.543Z,83
2022-11-09T03:51:33.711Z,85.93
2022-11-09T03:52:42.900Z,87.89
2022-11-09T03:53:52.051Z,88.13
2022-11-09T03:55:01.237Z,82.27
2022-11-09T03:56:10.406Z,104.49
2022-11-09T03:57:19.585Z,95.94
2022-11-09T03:58:27.763Z,81.78
2022-11-09T04:00:46.112Z,82.03
2022-11-09T04:01:55.281Z,102.78
2022-11-09T04:03:04.459Z,93.26
2022-11-09T04:04:13.621Z,84.96
2022-11-09T04:05:22.802Z,86.66
2022-11-09T04:06:31.973Z,83.49
2022-11-09T04:07:40.172Z,90.57
2022-11-09T04:08:48.348Z,87.89
2022-11-09T04:09:57.527Z,89.59
2022-11-09T04:11:06.700Z,87.64
2022-11-09T04:12:15.876Z,86.18
2022-11-09T04:13:25.056Z,88.37
2022-11-09T04:14:34.222Z,86.66
2022-11-09T04:15:43.383Z,88.37
2022-11-09T04:16:52.557Z,91.3
2022-11-09T04:18:01.739Z,90.08
2022-11-09T04:19:10.909Z,90.08
2022-11-09T04:20:20.080Z,89.84
2022-11-09T04:21:29.240Z,91.55
2022-11-09T04:22:38.418Z,90.08
2022-11-09T04:23:46.605Z,91.79
2022-11-09T04:24:55.788Z,91.55
2022-11-09T04:26:04.956Z,90.82
2022-11-09T04:27:14.119Z,91.55
2022-11-09T04:28:23.344Z,104
2022-11-09T04:29:32.471Z,94.23
2022-11-09T04:30:41.652Z,93.5
2022-11-09T04:31:49.834Z,94.23
2022-11-09T04:32:58.034Z,96.92
2022-11-09T04:34:06.222Z,99.6
2022-11-09T04:35:14.402Z,95.94
2022-11-09T04:36:22.607Z,93.99
2022-11-09T04:37:30.783Z,93.5
2022-11-09T04:38:40.016Z,92.52
2022-11-09T04:39:49.138Z,94.72
2022-11-09T04:40:58.307Z,93.75
2022-11-09T04:42:07.484Z,93.26
2022-11-09T04:43:16.651Z,93.5
2022-11-09T04:44:25.831Z,92.28
2022-11-09T04:45:34.994Z,100.83
2022-11-09T04:46:44.173Z,97.9
2022-11-09T04:47:53.344Z,92.77
2022-11-09T04:49:02.514Z,92.28
2022-11-09T04:50:11.684Z,94.97
2022-11-09T04:51:20.881Z,94.23
2022-11-09T04:52:29.048Z,88.86
2022-11-09T04:53:38.218Z,90.82
2022-11-09T04:54:47.392Z,89.11
2022-11-09T04:55:56.572Z,88.37
2022-11-09T04:57:05.731Z,89.11
2022-11-09T04:58:14.904Z,91.3
2022-11-09T04:59:24.106Z,93.75
2022-11-09T05:00:32.273Z,87.64
2022-11-09T05:01:40.461Z,88.62
2022-11-09T05:02:49.643Z,88.86
2022-11-09T05:03:57.827Z,85.93
2022-11-09T05:05:06.018Z,85.69
2022-11-09T05:06:15.192Z,86.66
2022-11-09T05:07:24.360Z,86.18
2022-11-09T05:08:33.526Z,85.93
2022-11-09T05:09:42.704Z,85.2
2022-11-09T05:10:51.888Z,85.44
2022-11-09T05:12:01.051Z,86.18
2022-11-09T05:13:10.222Z,88.86
2022-11-09T05:14:19.395Z,93.75
2022-11-09T05:15:28.563Z,86.91
2022-11-09T05:16:37.769Z,85.44
2022-11-09T05:17:46.912Z,88.37
2022-11-09T05:18:56.102Z,87.4
2022-11-09T05:20:04.281Z,85.2
2022-11-09T05:21:13.448Z,92.28
2022-11-09T05:22:22.621Z,84.71
2022-11-09T05:23:31.790Z,88.86
2022-11-09T05:24:40.959Z,86.42
2022-11-09T05:25:50.139Z,83.98
2022-11-09T05:26:59.299Z,93.26
2022-11-09T05:28:07.494Z,85.2
2022-11-09T05:29:15.722Z,87.4
2022-11-09T05:30:24.865Z,86.42
2022-11-09T05:31:33.050Z,90.08
2022-11-09T05:32:41.234Z,91.3
2022-11-09T05:33:50.412Z,115.72
2022-11-09T05:34:59.594Z,96.19
2022-11-09T05:36:08.757Z,94.97
2022-11-09T05:37:17.933Z,94.97
2022-11-09T05:38:27.108Z,91.3
2022-11-09T05:39:36.273Z,92.28
2022-11-09T05:40:45.447Z,87.15
2022-11-09T05:41:54.628Z,90.33
2022-11-09T05:43:03.801Z,83.98
2022-11-09T05:44:12.955Z,88.13
2022-11-09T05:45:22.136Z,85.69
2022-11-09T05:46:31.308Z,85.69
2022-11-09T05:47:39.485Z,87.64
2022-11-09T05:48:48.670Z,91.3
2022-11-09T05:49:57.846Z,83.98
2022-11-09T05:51:07.017Z,84.71
2022-11-09T05:52:16.187Z,93.5
2022-11-09T05:54:34.528Z,87.15
2022-11-09T05:55:43.708Z,97.41
2022-11-09T05:56:51.890Z,87.4
2022-11-09T05:58:00.090Z,103.27
2022-11-09T05:59:09.258Z,87.15
2022-11-09T06:00:18.440Z,87.89
2022-11-09T06:01:26.618Z,88.86
2022-11-09T06:02:34.815Z,104.98
2022-11-09T06:03:43.982Z,94.48
2022-11-09T06:04:53.160Z,104.49
2022-11-09T06:06:02.343Z,93.75
2022-11-09T06:07:11.491Z,97.9
2022-11-09T06:08:20.680Z,96.19
2022-11-09T06:09:29.829Z,95.94
2022-11-09T06:10:39.015Z,108.88
2022-11-09T06:11:48.187Z,100.09
2022-11-09T06:12:57.358Z,97.9
2022-11-09T06:14:06.526Z,98.63
2022-11-09T06:15:15.702Z,93.5
2022-11-09T06:16:24.875Z,99.36
2022-11-09T06:17:33.064Z,97.41
2022-11-09T06:18:42.239Z,100.09
2022-11-09T06:19:51.407Z,93.75
2022-11-09T06:21:00.600Z,95.45
2022-11-09T06:22:09.751Z,94.48
2022-11-09T06:23:18.936Z,98.87
2022-11-09T06:24:28.094Z,99.6
2022-11-09T06:25:36.289Z,96.67
2022-11-09T06:26:44.480Z,95.7
2022-11-09T06:27:52.656Z,110.1
2022-11-09T06:29:00.883Z,95.94
2022-11-09T06:30:10.032Z,99.12
2022-11-09T06:31:19.232Z,99.36
2022-11-09T06:32:28.383Z,103.75
2022-11-09T06:33:37.547Z,96.43
2022-11-09T06:34:46.731Z,103.51
2022-11-09T06:35:54.911Z,102.53
2022-11-09T06:37:04.091Z,100.09
2022-11-09T06:38:13.268Z,97.41
2022-11-09T06:39:22.434Z,99.85
2022-11-09T06:40:31.637Z,99.12
2022-11-09T06:41:40.779Z,95.45
2022-11-09T06:42:49.957Z,94.97
2022-11-09T06:43:59.127Z,97.16
2022-11-09T06:45:08.296Z,96.19
2022-11-09T06:46:17.473Z,96.67
2022-11-09T06:47:26.647Z,97.9
2022-11-09T06:48:35.823Z,95.94
2022-11-09T06:49:44.993Z,96.92
2022-11-09T06:50:53.171Z,98.87
2022-11-09T06:52:02.352Z,99.6
2022-11-09T06:53:11.512Z,98.63
2022-11-09T06:54:20.693Z,96.92
2022-11-09T06:55:29.875Z,99.85
2022-11-09T06:56:39.033Z,96.43
2022-11-09T06:57:48.223Z,97.16
2022-11-09T06:58:57.380Z,99.85
2022-11-09T07:00:05.584Z,97.41
2022-11-09T07:01:13.770Z,96.67
2022-11-09T07:02:22.940Z,96.92
2022-11-09T07:03:31.127Z,98.87
2022-11-09T07:04:39.325Z,97.16
2022-11-09T07:05:48.490Z,100.09
2022-11-09T07:06:57.664Z,100.09
2022-11-09T07:08:06.840Z,98.63
2022-11-09T07:09:16.015Z,97.9
2022-11-09T07:10:25.183Z,99.36
2022-11-09T07:11:34.366Z,97.16
2022-11-09T07:12:43.523Z,98.63
2022-11-09T07:13:52.692Z,99.6
2022-11-09T07:15:01.877Z,99.36
2022-11-09T07:16:11.054Z,101.31
2022-11-09T07:17:20.210Z,99.85
2022-11-09T07:18:29.386Z,98.14
2022-11-09T07:19:37.581Z,99.6
2022-11-09T07:20:46.759Z,101.8
2022-11-09T07:21:55.929Z,99.85
2022-11-09T07:23:05.087Z,100.34
2022-11-09T07:24:14.272Z,100.34
2022-11-09T07:25:23.437Z,98.38
2022-11-09T07:26:32.617Z,99.36
2022-11-09T07:27:41.780Z,103.27
2022-11-09T07:28:50.950Z,95.7
2022-11-09T07:30:00.130Z,101.31
2022-11-09T07:31:09.302Z,97.9
2022-11-09T07:32:18.472Z,96.67
2022-11-09T07:33:27.646Z,98.63
2022-11-09T07:34:35.838Z,97.9
2022-11-09T07:35:45.008Z,96.92
2022-11-09T07:36:54.179Z,99.12
2022-11-09T07:38:03.338Z,97.16
2022-11-09T07:39:12.520Z,99.6
2022-11-09T07:40:21.693Z,112.54
2022-11-09T07:41:30.876Z,101.07
2022-11-09T07:42:40.038Z,97.65
2022-11-09T07:43:49.207Z,99.85
2022-11-09T07:44:58.389Z,100.09
2022-11-09T07:46:07.565Z,101.07
2022-11-09T07:47:16.724Z,110.35
2022-11-09T07:48:25.901Z,102.05
2022-11-09T07:49:34.091Z,101.31
2022-11-09T07:50:43.268Z,101.07
2022-11-09T07:51:52.553Z,102.29
2022-11-09T07:53:01.617Z,101.07
2022-11-09T07:54:10.776Z,99.36
2022-11-09T07:55:19.947Z,99.85
2022-11-09T07:56:29.113Z,99.6
2022-11-09T07:57:38.299Z,100.09
2022-11-09T07:58:47.472Z,98.87
2022-11-09T07:59:56.642Z,99.6
2022-11-09T08:01:04.834Z,101.07
2022-11-09T08:02:13.090Z,98.14
2022-11-09T08:03:22.188Z,101.07
2022-11-09T08:04:31.366Z,97.65
2022-11-09T08:05:40.542Z,98.87
2022-11-09T08:06:49.705Z,99.85
2022-11-09T08:07:57.900Z,97.65
2022-11-09T08:09:06.089Z,101.07
2022-11-09T08:10:15.255Z,99.36
2022-11-09T08:11:24.436Z,100.83
2022-11-09T08:12:33.605Z,97.65
2022-11-09T08:13:42.779Z,99.85
2022-11-09T08:14:51.950Z,97.9
2022-11-09T08:16:01.121Z,98.63
2022-11-09T08:17:10.302Z,99.6
2022-11-09T08:18:19.474Z,99.85
2022-11-09T08:19:28.643Z,104.24
2022-11-09T08:20:37.809Z,97.41
2022-11-09T08:21:46.981Z,98.14
2022-11-09T08:22:56.155Z,98.63
2022-11-09T08:24:04.350Z,101.31
2022-11-09T08:25:13.518Z,96.92
2022-11-09T08:26:22.702Z,97.9
2022-11-09T08:27:31.859Z,100.58
2022-11-09T08:28:41.027Z,96.67
2022-11-09T08:29:50.204Z,96.43
2022-11-09T08:30:59.377Z,95.94
2022-11-09T08:32:07.571Z,94.72
2022-11-09T08:33:15.870Z,93.26
2022-11-09T08:34:24.932Z,93.26
2022-11-09T08:35:34.114Z,96.19
2022-11-09T08:36:42.295Z,94.72
2022-11-09T08:37:50.491Z,95.7
2022-11-09T08:38:59.652Z,92.28
2022-11-09T08:40:08.872Z,92.52
2022-11-09T08:41:18.021Z,91.3
2022-11-09T08:42:27.172Z,93.99
2022-11-09T08:43:36.347Z,92.77
2022-11-09T08:44:45.516Z,92.77
2022-11-09T08:45:54.688Z,93.5
2022-11-09T08:47:03.862Z,95.7
2022-11-09T08:48:13.039Z,96.19
2022-11-09T08:49:22.216Z,95.94
2022-11-09T08:50:31.376Z,93.75
2022-11-09T08:51:40.555Z,103.02
2022-11-09T08:52:48.747Z,95.21
2022-11-09T08:53:57.906Z,100.58
2022-11-09T08:55:07.082Z,104.73
2022-11-09T08:56:16.262Z,112.06
2022-11-09T08:57:25.430Z,94.23
2022-11-09T08:58:34.603Z,93.75
2022-11-09T08:59:43.797Z,104
2022-11-09T09:00:52.952Z,114.01
2022-11-09T09:02:02.122Z,107.17
2022-11-09T09:03:11.279Z,101.07
2022-11-09T09:04:20.454Z,101.56
2022-11-09T09:05:29.639Z,113.03
2022-11-09T09:06:38.809Z,99.6
2022-11-09T09:07:47.000Z,101.56
2022-11-09T09:08:55.205Z,100.83
2022-11-09T09:11:12.553Z,100.34
2022-11-09T09:12:20.743Z,97.41
2022-11-09T09:13:28.939Z,100.83
2022-11-09T09:14:38.115Z,103.27
2022-11-09T09:15:47.269Z,102.78
2022-11-09T09:16:56.451Z,103.02
2022-11-09T09:18:05.613Z,105.71
2022-11-09T09:19:14.790Z,105.71
2022-11-09T09:20:24.176Z,107.17
2022-11-09T09:21:33.137Z,109.37
2022-11-09T09:22:42.309Z,113.03
2022-11-09T09:23:51.488Z,118.89
2022-11-09T09:25:00.656Z,118.4
2022-11-09T09:26:09.816Z,122.07
2022-11-09T09:27:19.001Z,117.43
2022-11-09T09:28:27.191Z,109.13
2022-11-09T09:30:45.520Z,105.95
2022-11-09T09:31:54.693Z,105.95
2022-11-09T09:33:03.871Z,109.86
2022-11-09T09:34:13.067Z,107.17
2022-11-09T09:35:22.212Z,108.64
2022-11-09T09:36:31.386Z,104.24
2022-11-09T09:37:40.554Z,105.46
2022-11-09T09:38:48.753Z,105.46
2022-11-09T09:39:56.943Z,105.46
2022-11-09T09:41:06.119Z,116.69
2022-11-09T09:42:15.277Z,105.46
2022-11-09T09:43:23.479Z,109.37
2022-11-09T09:44:31.669Z,109.86
2022-11-09T09:45:40.841Z,109.86
2022-11-09T09:47:59.178Z,111.08
2022-11-09T09:49:08.354Z,109.13
2022-11-09T09:50:17.536Z,107.66
2022-11-09T09:51:26.704Z,109.61
2022-11-09T09:52:35.881Z,107.17
2022-11-09T09:53:45.054Z,105.95
2022-11-09T09:54:54.225Z,108.15
2022-11-09T09:56:03.387Z,109.13
2022-11-09T09:57:12.555Z,105.22
2022-11-09T09:58:21.743Z,105.95
2022-11-09T09:59:29.924Z,111.32
2022-11-09T10:00:39.110Z,112.3
2022-11-09T10:01:48.276Z,107.17
2022-11-09T10:02:57.446Z,104.73
2022-11-09T10:04:06.616Z,111.81
2022-11-09T10:05:15.814Z,112.3
2022-11-09T10:06:24.962Z,109.13
2022-11-09T10:07:34.139Z,105.22
2022-11-09T10:08:43.301Z,112.06
2022-11-09T10:09:52.483Z,107.17
2022-11-09T10:11:01.664Z,107.91
2022-11-09T10:12:10.835Z,104.73
2022-11-09T10:13:19.996Z,105.95
2022-11-09T10:14:29.174Z,107.66
2022-11-09T10:15:37.367Z,115.72
2022-11-09T10:16:46.541Z,105.95
2022-11-09T10:17:55.706Z,110.35
2022-11-09T10:19:04.876Z,105.95
2022-11-09T10:20:14.067Z,104.98
2022-11-09T10:22:32.410Z,105.22
2022-11-09T10:23:41.567Z,104.98
2022-11-09T10:24:50.746Z,106.44
2022-11-09T10:25:58.942Z,107.91
2022-11-09T10:27:07.132Z,105.46
2022-11-09T10:28:16.291Z,111.32
2022-11-09T10:29:25.479Z,107.91
2022-11-09T10:30:34.645Z,105.22
2022-11-09T10:31:43.833Z,106.44
2022-11-09T10:34:02.153Z,106.68
2022-11-09T10:35:11.333Z,105.71
2022-11-09T10:36:20.512Z,129.88
2022-11-09T10:37:29.668Z,112.06
2022-11-09T10:38:38.847Z,105.46
2022-11-09T10:39:48.022Z,106.44
2022-11-09T10:40:57.186Z,103.75
2022-11-09T10:42:05.378Z,120.6
2022-11-09T10:43:14.548Z,107.66
2022-11-09T10:44:23.744Z,104.98
2022-11-09T10:46:42.070Z,111.81
2022-11-09T10:47:50.269Z,104.24
2022-11-09T10:48:58.461Z,103.75
2022-11-09T10:50:07.633Z,103.27
2022-11-09T10:51:16.799Z,105.71
2022-11-09T10:52:25.983Z,105.71
2022-11-09T10:53:35.142Z,102.53
2022-11-09T10:54:44.312Z,103.02
2022-11-09T10:55:53.490Z,106.2
2022-11-09T10:57:01.683Z,102.78
2022-11-09T10:59:19.045Z,104.49
2022-11-09T11:00:28.210Z,106.44
2022-11-09T11:01:37.392Z,106.44
2022-11-09T11:02:46.556Z,107.17
2022-11-09T11:03:55.728Z,105.46
2022-11-09T11:05:04.906Z,105.95
2022-11-09T11:06:14.111Z,125.48
2022-11-09T11:07:23.244Z,111.81
2022-11-09T11:08:32.424Z,119.62
2022-11-09T11:09:41.588Z,121.33
2022-11-09T11:10:50.763Z,120.36
2022-11-09T11:11:58.969Z,112.54
2022-11-09T11:13:07.148Z,119.14
2022-11-09T11:14:16.323Z,111.57
2022-11-09T11:15:25.499Z,112.06
2022-11-09T11:16:34.667Z,113.28
2022-11-09T11:17:43.847Z,115.23
2022-11-09T11:18:53.028Z,114.5
2022-11-09T11:20:02.190Z,114.25
2022-11-09T11:21:11.355Z,113.28
2022-11-09T11:22:20.534Z,114.25
2022-11-09T11:23:29.697Z,115.23
2022-11-09T11:24:38.865Z,114.01
2022-11-09T11:25:48.041Z,109.13
2022-11-09T11:26:57.231Z,111.81
2022-11-09T11:28:05.407Z,114.99
2022-11-09T11:29:14.618Z,114.99
2022-11-09T11:30:23.752Z,116.69
2022-11-09T11:31:32.923Z,112.3
2022-11-09T11:32:42.095Z,122.31
2022-11-09T11:33:51.266Z,112.79
2022-11-09T11:35:00.441Z,112.79
2022-11-09T11:36:08.642Z,112.06
2022-11-09T11:37:16.826Z,112.79
2022-11-09T11:38:25.987Z,113.76
2022-11-09T11:39:34.191Z,112.79
2022-11-09T11:40:42.368Z,113.52
2022-11-09T11:41:51.553Z,111.32
2022-11-09T11:43:00.740Z,111.57
2022-11-09T11:44:09.901Z,112.79
2022-11-09T11:45:19.118Z,112.79
2022-11-09T11:46:28.231Z,116.69
2022-11-09T11:47:37.403Z,104
2022-11-09T11:48:46.583Z,107.91
2022-11-09T11:49:55.748Z,110.59
2022-11-09T11:51:04.923Z,114.99
2022-11-09T11:52:14.107Z,122.07
2022-11-09T11:53:23.279Z,110.59
2022-11-09T11:54:32.448Z,111.57
2022-11-09T11:55:40.634Z,105.95
2022-11-09T11:56:49.806Z,109.13
2022-11-09T11:59:08.146Z,109.13
2022-11-09T12:00:17.332Z,105.46
2022-11-09T12:01:26.496Z,104.98
2022-11-09T12:02:35.665Z,104
2022-11-09T12:03:44.844Z,106.2
2022-11-09T12:06:02.206Z,103.51
2022-11-09T12:07:10.402Z,103.02
2022-11-09T12:08:18.596Z,116.45
2022-11-09T12:09:27.761Z,105.22
2022-11-09T12:10:36.933Z,104.98
2022-11-09T12:11:46.111Z,105.95
2022-11-09T12:12:55.273Z,105.22
2022-11-09T12:14:04.448Z,104.98
2022-11-09T12:16:22.802Z,105.22
2022-11-09T12:17:31.972Z,104.98
2022-11-09T12:18:41.209Z,103.51
2022-11-09T12:19:49.335Z,102.78
2022-11-09T12:20:57.522Z,104.24
2022-11-09T12:22:06.687Z,106.2
2022-11-09T12:23:15.864Z,104.49
2022-11-09T12:24:25.039Z,109.61
2022-11-09T12:25:34.212Z,103.27
2022-11-09T12:26:43.385Z,105.22
2022-11-09T12:27:52.566Z,125.73
2022-11-09T12:29:01.721Z,104.73
2022-11-09T12:30:10.895Z,106.93
2022-11-09T12:31:20.060Z,102.78
2022-11-09T12:32:29.236Z,105.95
2022-11-09T12:33:38.410Z,103.75
2022-11-09T12:34:47.591Z,105.71
2022-11-09T12:35:55.770Z,109.13
2022-11-09T12:37:04.952Z,110.59
2022-11-09T12:38:14.124Z,111.08
2022-11-09T12:39:23.287Z,111.81
2022-11-09T12:40:32.464Z,109.86
2022-11-09T12:41:41.635Z,108.88
2022-11-09T12:42:50.811Z,112.3
2022-11-09T12:43:59.976Z,106.2
2022-11-09T12:45:09.158Z,104.73
2022-11-09T12:46:18.330Z,102.53
2022-11-09T12:47:27.504Z,103.02
2022-11-09T12:48:36.671Z,103.27
2022-11-09T12:49:45.834Z,98.63
2022-11-09T12:50:54.051Z,100.58
2022-11-09T12:52:02.220Z,98.14
2022-11-09T12:53:10.405Z,95.21
2022-11-09T12:54:19.583Z,95.7
2022-11-09T12:55:27.780Z,97.41
2022-11-09T12:56:35.976Z,94.23
2022-11-09T12:57:45.147Z,92.28
2022-11-09T12:58:54.313Z,91.79
2022-11-09T13:00:03.480Z,99.85
2022-11-09T13:01:12.659Z,95.21
2022-11-09T13:02:21.830Z,99.36
2022-11-09T13:03:31.006Z,95.21
2022-11-09T13:04:40.169Z,89.59
2022-11-09T13:05:49.347Z,100.83
2022-11-09T13:06:58.524Z,92.28
2022-11-09T13:08:07.687Z,90.82
2022-11-09T13:09:16.859Z,91.55
2022-11-09T13:10:26.034Z,95.21
2022-11-09T13:11:34.251Z,94.23
2022-11-09T13:12:43.400Z,97.16
2022-11-09T13:13:52.566Z,98.38
2022-11-09T13:15:01.743Z,104.73
2022-11-09T13:16:10.918Z,98.14
2022-11-09T13:17:20.086Z,99.6
2022-11-09T13:18:29.256Z,104
2022-11-09T13:19:37.451Z,101.07
2022-11-09T13:20:45.646Z,104.73
2022-11-09T13:21:54.809Z,101.56
2022-11-09T13:23:03.982Z,103.02
2022-11-09T13:24:12.179Z,110.1
2022-11-09T13:25:20.508Z,107.17
2022-11-09T13:26:29.628Z,130.37
2022-11-09T13:27:38.709Z,105.95
2022-11-09T13:28:47.931Z,106.44
2022-11-09T13:29:57.209Z,104.24
2022-11-09T13:31:06.268Z,105.22
2022-11-09T13:32:15.583Z,104.73
2022-11-09T13:33:24.741Z,104.49
2022-11-09T13:34:33.800Z,113.76
2022-11-09T13:35:42.967Z,104.24
2022-11-09T13:36:52.235Z,105.22
2022-11-09T13:38:01.289Z,124.26
2022-11-09T13:39:10.559Z,113.76
2022-11-09T13:40:18.780Z,119.38
2022-11-09T13:41:27.950Z,103.02
2022-11-09T13:42:37.149Z,103.51
2022-11-09T13:43:46.356Z,104.73
2022-11-09T13:44:55.452Z,102.53
2022-11-09T13:46:04.668Z,104.49
2022-11-09T13:47:13.806Z,105.46
2022-11-09T13:48:22.023Z,104
2022-11-09T13:49:30.202Z,112.3
2022-11-09T13:50:39.219Z,104.98
2022-11-09T13:51:47.590Z,104.24
2022-11-09T13:52:55.779Z,115.47
2022-11-09T13:54:04.949Z,105.22
2022-11-09T13:55:14.120Z,105.71
2022-11-09T13:56:23.198Z,104.49
2022-11-09T13:57:32.472Z,104.49
2022-11-09T13:58:41.635Z,102.78
2022-11-09T13:59:50.642Z,102.05
2022-11-09T14:00:59.980Z,104.49
2022-11-09T14:02:09.170Z,104.49
2022-11-09T14:03:18.433Z,104.98
2022-11-09T14:04:27.482Z,104
2022-11-09T14:05:36.720Z,108.64
2022-11-09T14:06:45.861Z,106.93
2022-11-09T14:07:54.053Z,102.05
2022-11-09T14:09:03.263Z,105.22
2022-11-09T14:10:12.354Z,104.49
2022-11-09T14:11:21.488Z,107.17
2022-11-09T14:12:30.731Z,104.49
2022-11-09T14:13:39.902Z,103.27
2022-11-09T14:14:49.085Z,102.53
2022-11-09T14:15:57.229Z,104.98
2022-11-09T14:17:05.451Z,106.44
2022-11-09T14:18:14.613Z,113.03
2022-11-09T14:19:22.853Z,101.07
2022-11-09T14:20:30.827Z,113.03
2022-11-09T14:21:40.225Z,98.63
2022-11-09T14:22:49.321Z,101.07
2022-11-09T14:23:58.493Z,105.71
2022-11-09T14:25:07.717Z,111.57
2022-11-09T14:26:16.870Z,96.43
2022-11-09T14:27:26.010Z,99.36
2022-11-09T14:28:35.043Z,93.5
2022-11-09T14:29:44.228Z,100.83
2022-11-09T14:30:53.561Z,96.19
2022-11-09T14:32:02.723Z,92.77
2022-11-09T14:33:11.802Z,107.17
2022-11-09T14:34:21.029Z,97.65
2022-11-09T14:35:29.286Z,101.07
2022-11-09T14:36:38.457Z,97.41
2022-11-09T14:37:47.595Z,97.41
2022-11-09T14:38:56.804Z,97.9
2022-11-09T14:40:05.910Z,96.67
2022-11-09T14:42:24.302Z,96.67
2022-11-09T14:43:33.519Z,97.9
2022-11-09T14:44:41.698Z,106.68
2022-11-09T14:45:49.876Z,99.6
2022-11-09T14:46:59.009Z,122.07
2022-11-09T14:48:08.069Z,109.13
2022-11-09T14:49:16.407Z,99.6
2022-11-09T14:50:24.598Z,100.34
2022-11-09T14:51:33.755Z,98.63
2022-11-09T14:52:42.996Z,101.8
2022-11-09T14:53:52.093Z,103.27
2022-11-09T14:55:01.294Z,101.8
2022-11-09T14:56:10.264Z,103.27
2022-11-09T14:57:19.648Z,106.2